Time;durP1;ratioP1;P1;durP2;ratioP2;P2;SDS_P1;SDS_P2;PMS_P1;PMS_P2;Temp;Humidity;BMP_temperature;BMP_pressure;BME280_temperature;BME280_humidity;BME280_pressure;Samples;Min_cycle;Max_cycle;Signal;HPM_P1;HPM_P2
2024/01/01 00:02:16;;;;;;;31.23;14.80;;;6.50;74.20;;;;;;4933077;29;20276;-72
2024/01/01 00:04:42;;;;;;;31.83;16.50;;;6.50;74.20;;;;;;4931399;28;20185;-71
2024/01/01 00:07:08;;;;;;;35.13;16.00;;;6.50;74.20;;;;;;4933738;28;20931;-72
2024/01/01 00:09:33;;;;;;;58.10;30.13;;;6.60;74.00;;;;;;4931495;28;20676;-72
2024/01/01 00:11:59;;;;;;;64.90;29.97;;;6.60;74.00;;;;;;4931851;29;20272;-73
2024/01/01 00:14:24;;;;;;;34.83;14.27;;;6.70;73.70;;;;;;4930864;28;20216;-71
2024/01/01 00:16:50;;;;;;;24.93;13.63;;;6.70;73.60;;;;;;4927618;28;20641;-72
2024/01/01 00:19:15;;;;;;;41.17;18.00;;;6.70;73.30;;;;;;4948398;28;20192;-73
2024/01/01 00:21:41;;;;;;;38.50;17.90;;;6.70;73.30;;;;;;4925879;28;20205;-73
2024/01/01 00:24:07;;;;;;;29.33;16.30;;;6.70;73.30;;;;;;4929733;29;20204;-73
2024/01/01 00:26:32;;;;;;;37.57;17.23;;;6.80;73.20;;;;;;4931217;28;20254;-71
2024/01/01 00:28:58;;;;;;;29.80;14.87;;;6.80;73.30;;;;;;4930785;28;20200;-73
2024/01/01 00:31:23;;;;;;;29.10;13.73;;;6.80;73.30;;;;;;4923621;28;20251;-72
2024/01/01 00:33:49;;;;;;;25.87;10.87;;;6.90;73.30;;;;;;4930826;28;20184;-72
2024/01/01 00:36:14;;;;;;;23.10;9.97;;;6.90;72.90;;;;;;4929383;28;20181;-72
2024/01/01 00:38:40;;;;;;;20.97;9.83;;;6.90;73.30;;;;;;4929041;28;20185;-74
2024/01/01 00:41:05;;;;;;;19.70;9.00;;;7.00;73.20;;;;;;4923692;28;20209;-73
2024/01/01 00:43:32;;;;;;;213.70;141.50;;;7.00;72.90;;;;;;4931527;28;20223;-71
2024/01/01 00:45:58;;;;;;;24.60;11.67;;;7.00;73.20;;;;;;4927244;28;20289;-74
2024/01/01 00:48:23;;;;;;;20.37;10.57;;;7.00;73.30;;;;;;4931503;28;20883;-74
2024/01/01 00:50:49;;;;;;;24.73;12.13;;;7.00;73.60;;;;;;4926648;28;20279;-75
2024/01/01 00:53:14;;;;;;;20.50;12.50;;;7.00;73.30;;;;;;4931090;28;20195;-74
2024/01/01 00:55:40;;;;;;;22.00;11.63;;;7.00;73.20;;;;;;4931615;28;20181;-76
2024/01/01 00:58:06;;;;;;;26.17;12.30;;;6.90;73.00;;;;;;4931831;28;20184;-73
2024/01/01 01:00:31;;;;;;;32.80;14.07;;;6.80;73.00;;;;;;4923319;28;20731;-73
2024/01/01 01:02:57;;;;;;;41.97;17.90;;;6.80;73.60;;;;;;4926071;29;20224;-73
2024/01/01 01:05:24;;;;;;;47.60;19.90;;;6.80;73.70;;;;;;4925563;28;20207;-73
2024/01/01 01:07:50;;;;;;;43.93;16.70;;;6.70;73.90;;;;;;4925470;28;20188;-74
2024/01/01 01:10:16;;;;;;;65.80;23.40;;;6.70;74.20;;;;;;4928090;28;20460;-72
2024/01/01 01:12:42;;;;;;;81.03;27.80;;;6.70;74.20;;;;;;4930469;29;21023;-74
2024/01/01 01:15:07;;;;;;;94.27;35.70;;;6.70;74.20;;;;;;4930788;28;20551;-75
2024/01/01 01:17:33;;;;;;;101.43;33.87;;;6.70;74.00;;;;;;4931247;28;20280;-73
2024/01/01 01:19:59;;;;;;;79.53;27.57;;;6.70;74.00;;;;;;4924205;28;20256;-73
2024/01/01 01:22:24;;;;;;;107.83;37.37;;;6.70;74.30;;;;;;4927547;29;20266;-74
2024/01/01 01:24:50;;;;;;;108.73;37.03;;;6.80;74.30;;;;;;4923509;28;20619;-73
2024/01/01 01:27:15;;;;;;;98.03;35.20;;;6.80;73.90;;;;;;4928470;28;20943;-73
2024/01/01 01:29:41;;;;;;;59.00;25.80;;;6.80;74.00;;;;;;4922282;28;20181;-72
2024/01/01 01:32:09;;;;;;;35.30;15.30;;;6.90;73.70;;;;;;4924297;28;20207;-73
2024/01/01 01:34:34;;;;;;;39.57;16.23;;;6.90;73.90;;;;;;4925441;28;20793;-73
2024/01/01 01:37:00;;;;;;;97.27;37.97;;;6.90;73.90;;;;;;4924391;28;20893;-73
2024/01/01 01:39:26;;;;;;;49.93;18.03;;;6.80;74.20;;;;;;4925819;28;20193;-74
2024/01/01 01:41:52;;;;;;;68.57;27.53;;;6.80;74.80;;;;;;4918536;28;20824;-74
2024/01/01 01:44:17;;;;;;;63.30;28.17;;;6.70;74.90;;;;;;4925390;28;20188;-73
2024/01/01 01:46:43;;;;;;;60.30;26.20;;;6.70;75.10;;;;;;4926326;28;20319;-72
2024/01/01 01:49:08;;;;;;;46.57;19.93;;;6.60;75.50;;;;;;4926232;28;20231;-71
2024/01/01 01:51:34;;;;;;;36.90;17.07;;;6.60;75.50;;;;;;4925844;28;20227;-72
2024/01/01 01:54:00;;;;;;;22.60;10.73;;;6.60;75.70;;;;;;4929238;28;20280;-72
2024/01/01 01:56:27;;;;;;;16.20;8.00;;;6.60;75.90;;;;;;4930448;28;20284;-70
2024/01/01 01:58:53;;;;;;;23.23;8.90;;;6.60;76.10;;;;;;4926431;28;20426;-72
2024/01/01 02:01:19;;;;;;;18.57;8.23;;;6.50;76.40;;;;;;4925756;28;20452;-73
2024/01/01 02:03:45;;;;;;;23.07;11.50;;;6.50;76.40;;;;;;4925984;28;20496;-71
2024/01/01 02:06:11;;;;;;;24.17;12.50;;;6.50;76.70;;;;;;4929408;28;20281;-70
2024/01/01 02:08:37;;;;;;;32.60;13.20;;;6.50;76.70;;;;;;4955769;28;20558;-71
2024/01/01 02:11:03;;;;;;;17.27;7.80;;;6.60;76.70;;;;;;4928786;28;20547;-71
2024/01/01 02:13:29;;;;;;;23.87;11.73;;;6.50;76.70;;;;;;4929364;28;20579;-70
2024/01/01 02:15:56;;;;;;;15.60;9.27;;;6.60;76.80;;;;;;4929290;28;20452;-71
2024/01/01 02:18:22;;;;;;;19.80;8.30;;;6.60;76.80;;;;;;4929973;28;20432;-72
2024/01/01 02:20:47;;;;;;;15.43;7.03;;;6.50;77.00;;;;;;4923034;28;20514;-70
2024/01/01 02:23:18;;;;;;;12.97;6.07;;;6.50;77.00;;;;;;4927164;28;20480;-69
2024/01/01 02:25:44;;;;;;;15.33;6.30;;;6.50;77.10;;;;;;4930670;28;20270;-72
2024/01/01 02:28:10;;;;;;;19.30;8.90;;;6.50;77.40;;;;;;4928451;28;20790;-71
2024/01/01 02:30:36;;;;;;;16.63;8.57;;;6.50;77.60;;;;;;4928377;28;20464;-69
2024/01/01 02:33:09;;;;;;;34.00;15.33;;;6.50;77.70;;;;;;4921297;28;20445;-71
2024/01/01 02:35:36;;;;;;;25.97;12.43;;;6.50;77.70;;;;;;4932287;28;20554;-71
2024/01/01 02:38:04;;;;;;;25.50;10.93;;;6.40;78.00;;;;;;4950127;28;20424;-70
2024/01/01 02:40:31;;;;;;;18.83;8.83;;;6.40;78.10;;;;;;4942475;28;20567;-70
2024/01/01 02:42:57;;;;;;;20.77;8.33;;;6.40;78.10;;;;;;4939406;28;21200;-70
2024/01/01 02:45:24;;;;;;;12.20;7.00;;;6.40;78.10;;;;;;4930301;28;20425;-72
2024/01/01 02:47:49;;;;;;;16.53;7.27;;;6.50;78.10;;;;;;4947793;28;20669;-72
2024/01/01 02:50:15;;;;;;;12.90;6.90;;;6.50;78.30;;;;;;4924543;28;20499;-70
2024/01/01 02:52:41;;;;;;;14.03;6.67;;;6.50;78.10;;;;;;4938836;28;20267;-70
2024/01/01 02:55:07;;;;;;;15.70;6.23;;;6.50;78.10;;;;;;4929899;28;20499;-72
2024/01/01 02:57:32;;;;;;;13.57;7.03;;;6.50;78.00;;;;;;4928292;28;20248;-71
2024/01/01 02:59:58;;;;;;;14.33;7.20;;;6.50;78.10;;;;;;4924433;28;20456;-71
2024/01/01 03:02:24;;;;;;;14.10;7.30;;;6.50;78.10;;;;;;4926662;29;20219;-71
2024/01/01 03:04:49;;;;;;;18.70;8.50;;;6.40;78.30;;;;;;4929721;28;20263;-72
2024/01/01 03:07:15;;;;;;;13.60;6.80;;;6.40;78.40;;;;;;4928522;28;20250;-70
2024/01/01 03:09:40;;;;;;;21.07;8.40;;;6.30;78.70;;;;;;4926951;28;20262;-70
2024/01/01 03:12:06;;;;;;;13.53;6.50;;;6.30;79.00;;;;;;4927110;29;20220;-72
2024/01/01 03:14:32;;;;;;;19.33;8.20;;;6.40;78.90;;;;;;4929215;28;20188;-70
2024/01/01 03:16:57;;;;;;;12.10;6.67;;;6.40;78.70;;;;;;4929334;28;20440;-71
2024/01/01 03:19:23;;;;;;;14.43;7.30;;;6.40;78.90;;;;;;4928964;28;20223;-72
2024/01/01 03:21:48;;;;;;;21.80;8.70;;;6.40;78.90;;;;;;4924000;29;20211;-70
2024/01/01 03:24:14;;;;;;;19.90;7.83;;;6.40;79.00;;;;;;4929083;28;20648;-70
2024/01/01 03:26:39;;;;;;;22.73;9.50;;;6.50;79.00;;;;;;4929300;28;20264;-72
2024/01/01 03:29:05;;;;;;;17.90;7.70;;;6.60;78.70;;;;;;4929516;28;20191;-70
2024/01/01 03:31:30;;;;;;;14.90;7.33;;;6.60;78.40;;;;;;4922223;28;20225;-70
2024/01/01 03:33:56;;;;;;;15.63;7.10;;;6.70;78.10;;;;;;4928381;28;20193;-71
2024/01/01 03:36:21;;;;;;;18.17;7.00;;;6.70;78.10;;;;;;4929369;28;20188;-71
2024/01/01 03:38:47;;;;;;;15.60;7.73;;;6.70;77.80;;;;;;4929019;28;20189;-71
2024/01/01 03:41:13;;;;;;;18.50;7.90;;;6.70;77.70;;;;;;4921979;28;20300;-72
2024/01/01 03:43:38;;;;;;;15.87;7.40;;;6.70;78.00;;;;;;4927883;28;20226;-70
2024/01/01 03:46:04;;;;;;;18.70;7.13;;;6.70;78.10;;;;;;4929317;28;20185;-71
2024/01/01 03:48:29;;;;;;;17.63;7.23;;;6.70;78.30;;;;;;4941042;28;20188;-72
2024/01/01 03:50:55;;;;;;;15.23;6.97;;;6.70;77.80;;;;;;4924534;29;20541;-71
2024/01/01 03:53:21;;;;;;;13.67;6.30;;;6.70;77.70;;;;;;4925783;29;20200;-71
2024/01/01 03:55:46;;;;;;;13.27;6.20;;;6.60;77.80;;;;;;4929093;28;20556;-69
2024/01/01 03:58:12;;;;;;;11.03;6.20;;;6.60;78.10;;;;;;4924173;28;20586;-70
2024/01/01 04:00:38;;;;;;;11.63;5.77;;;6.60;78.30;;;;;;4925697;28;20213;-70
2024/01/01 04:03:03;;;;;;;14.73;6.13;;;6.60;78.30;;;;;;4931316;29;20216;-70
2024/01/01 04:05:29;;;;;;;9.43;5.53;;;6.60;78.30;;;;;;4931301;28;20459;-71
2024/01/01 04:07:54;;;;;;;14.23;4.50;;;6.60;78.40;;;;;;4931750;28;20192;-70
2024/01/01 04:10:20;;;;;;;12.20;4.77;;;6.50;78.60;;;;;;4925404;28;20288;-72
2024/01/01 04:12:46;;;;;;;8.03;3.97;;;6.50;78.70;;;;;;4942173;28;20214;-70
2024/01/01 04:15:12;;;;;;;9.60;3.97;;;6.40;78.90;;;;;;4955181;28;20192;-71
2024/01/01 04:17:38;;;;;;;12.50;4.10;;;6.40;79.00;;;;;;4947382;28;20192;-70
2024/01/01 04:20:10;;;;;;;10.43;4.37;;;6.40;78.90;;;;;;4926633;28;20224;-70
2024/01/01 04:22:36;;;;;;;8.87;3.70;;;6.40;79.00;;;;;;4936411;28;20480;-70
2024/01/01 04:25:02;;;;;;;6.40;2.90;;;6.40;79.00;;;;;;4934620;28;20420;-72
2024/01/01 04:27:28;;;;;;;6.53;2.90;;;6.40;79.00;;;;;;4942512;28;20429;-73
2024/01/01 04:29:53;;;;;;;7.80;3.10;;;6.40;79.20;;;;;;4932392;28;20336;-73
2024/01/01 04:32:20;;;;;;;8.90;2.73;;;6.30;79.30;;;;;;4929932;29;20204;-70
2024/01/01 04:34:45;;;;;;;6.23;2.70;;;6.30;79.50;;;;;;4931825;28;20180;-70
2024/01/01 04:37:11;;;;;;;5.67;2.20;;;6.30;79.30;;;;;;4932358;28;20424;-70
2024/01/01 04:39:37;;;;;;;6.37;2.87;;;6.30;79.50;;;;;;4928708;28;20185;-70
2024/01/01 04:42:03;;;;;;;5.80;2.10;;;6.40;79.30;;;;;;4945186;28;21101;-72
2024/01/01 04:44:29;;;;;;;6.37;2.30;;;6.30;79.20;;;;;;4936954;28;20188;-71
2024/01/01 04:46:54;;;;;;;3.97;1.90;;;6.30;79.30;;;;;;4933937;28;20425;-71
2024/01/01 04:49:20;;;;;;;5.37;2.53;;;6.30;79.30;;;;;;4936604;28;21030;-73
2024/01/01 04:51:46;;;;;;;9.50;2.27;;;6.30;79.50;;;;;;4926693;29;20246;-72
2024/01/01 04:54:11;;;;;;;3.00;2.00;;;6.20;79.60;;;;;;4931168;28;20284;-75
2024/01/01 04:56:37;;;;;;;4.00;2.20;;;6.30;79.60;;;;;;4930145;28;20176;-74
2024/01/01 04:59:03;;;;;;;5.93;2.80;;;6.30;79.50;;;;;;4930941;28;20717;-73
2024/01/01 05:01:28;;;;;;;4.03;2.00;;;6.20;79.50;;;;;;4927219;28;20208;-72
2024/01/01 05:03:54;;;;;;;2.20;1.50;;;6.20;79.70;;;;;;4926681;28;20472;-72
2024/01/01 05:06:20;;;;;;;5.50;2.23;;;6.30;79.50;;;;;;4930784;28;20192;-72
2024/01/01 05:08:47;;;;;;;4.60;2.70;;;6.30;79.30;;;;;;4925906;28;20276;-73
2024/01/01 05:11:12;;;;;;;6.07;2.30;;;6.30;78.90;;;;;;4922071;28;20312;-71
2024/01/01 05:13:38;;;;;;;6.83;2.40;;;6.30;78.70;;;;;;4928893;29;20952;-73
2024/01/01 05:16:11;;;;;;;3.83;1.87;;;6.40;78.70;;;;;;4928738;28;20192;-75
2024/01/01 05:18:36;;;;;;;4.87;1.80;;;6.40;78.60;;;;;;4929181;28;20601;-72
2024/01/01 05:21:02;;;;;;;4.27;1.77;;;6.30;78.70;;;;;;4922254;28;20465;-72
2024/01/01 05:23:28;;;;;;;2.70;1.20;;;6.30;78.70;;;;;;4927666;28;20224;-72
2024/01/01 05:25:53;;;;;;;2.90;1.20;;;6.30;78.30;;;;;;4924882;28;20420;-76
2024/01/01 05:28:19;;;;;;;4.10;1.50;;;6.30;78.10;;;;;;4930706;28;20188;-71
2024/01/01 05:30:45;;;;;;;4.73;1.50;;;6.20;78.10;;;;;;4922839;28;20205;-73
2024/01/01 05:33:10;;;;;;;4.10;1.57;;;6.30;77.80;;;;;;4930658;29;20200;-71
2024/01/01 05:35:36;;;;;;;4.47;1.80;;;6.20;77.80;;;;;;4931224;28;20425;-72
2024/01/01 05:38:02;;;;;;;4.33;1.67;;;6.30;77.80;;;;;;4932085;28;20208;-72
2024/01/01 05:40:28;;;;;;;3.73;1.43;;;6.20;78.00;;;;;;4932056;28;21188;-72
2024/01/01 05:42:53;;;;;;;4.00;1.47;;;6.20;78.30;;;;;;4949437;28;20460;-75
2024/01/01 05:45:19;;;;;;;3.70;1.40;;;6.20;78.60;;;;;;4933423;28;20200;-72
2024/01/01 05:47:45;;;;;;;5.90;1.53;;;6.20;78.90;;;;;;4932609;28;20198;-72
2024/01/01 05:50:10;;;;;;;10.93;2.30;;;6.20;79.00;;;;;;4928975;28;20220;-72
2024/01/01 05:52:36;;;;;;;6.27;1.93;;;6.20;79.20;;;;;;4928980;29;20224;-75
2024/01/01 05:55:01;;;;;;;4.13;1.83;;;6.20;79.20;;;;;;4929057;28;20193;-71
2024/01/01 05:57:27;;;;;;;5.23;1.87;;;6.20;79.00;;;;;;4951372;28;20682;-72
2024/01/01 05:59:52;;;;;;;3.60;1.67;;;6.20;79.00;;;;;;4926606;28;20217;-71
2024/01/01 06:02:18;;;;;;;5.17;2.30;;;6.20;79.00;;;;;;4938822;28;20775;-70
2024/01/01 06:04:44;;;;;;;4.30;1.70;;;6.20;78.90;;;;;;4931548;28;20653;-74
2024/01/01 06:07:09;;;;;;;5.87;2.10;;;6.20;78.90;;;;;;4944479;28;20184;-74
2024/01/01 06:09:35;;;;;;;4.80;1.80;;;6.20;78.70;;;;;;4952079;28;20189;-76
2024/01/01 06:12:01;;;;;;;5.97;2.30;;;6.30;78.70;;;;;;4943224;28;20185;-73
2024/01/01 06:14:27;;;;;;;5.80;2.20;;;6.30;77.80;;;;;;4961652;28;20182;-72
2024/01/01 06:16:52;;;;;;;3.67;1.80;;;6.20;77.80;;;;;;4930435;28;20547;-71
2024/01/01 06:19:18;;;;;;;3.23;1.77;;;6.20;78.10;;;;;;4929730;28;20215;-75
2024/01/01 06:21:43;;;;;;;5.13;1.90;;;6.20;77.70;;;;;;4923977;28;20201;-73
2024/01/01 06:24:09;;;;;;;4.23;1.67;;;6.20;77.80;;;;;;4928958;28;20216;-71
2024/01/01 06:26:35;;;;;;;6.70;2.00;;;6.20;77.70;;;;;;4930802;28;20618;-74
2024/01/01 06:29:00;;;;;;;5.30;1.50;;;6.20;77.40;;;;;;4929846;28;20181;-73
2024/01/01 06:31:26;;;;;;;3.33;1.97;;;6.20;77.40;;;;;;4927321;28;20248;-72
2024/01/01 06:33:51;;;;;;;8.17;2.00;;;6.20;77.80;;;;;;4925746;28;20326;-72
2024/01/01 06:36:18;;;;;;;4.40;1.73;;;6.10;77.70;;;;;;4929965;28;20269;-71
2024/01/01 06:38:43;;;;;;;6.03;2.13;;;6.10;77.80;;;;;;4926959;28;20181;-72
2024/01/01 06:41:09;;;;;;;4.20;1.67;;;6.00;77.70;;;;;;4926583;28;20464;-71
2024/01/01 06:43:34;;;;;;;3.60;1.43;;;6.00;78.10;;;;;;4926127;28;20213;-73
2024/01/01 06:46:00;;;;;;;4.97;1.60;;;5.90;78.30;;;;;;4945945;28;20177;-71
2024/01/01 06:48:26;;;;;;;2.70;1.83;;;5.90;78.30;;;;;;4944775;28;20265;-72
2024/01/01 06:50:52;;;;;;;5.90;1.97;;;5.90;78.10;;;;;;4926912;28;20263;-72
2024/01/01 06:53:18;;;;;;;4.00;1.70;;;5.90;78.10;;;;;;4938345;28;20437;-71
2024/01/01 06:55:43;;;;;;;4.47;1.70;;;5.80;78.10;;;;;;4946920;28;20188;-72
2024/01/01 06:58:09;;;;;;;2.67;1.63;;;5.80;78.90;;;;;;4932440;28;20192;-72
2024/01/01 07:00:35;;;;;;;5.97;2.20;;;5.80;79.30;;;;;;4925819;28;20247;-74
2024/01/01 07:03:00;;;;;;;4.10;1.30;;;5.70;79.30;;;;;;4928340;29;20224;-73
2024/01/01 07:05:28;;;;;;;7.20;2.10;;;5.70;79.30;;;;;;4930214;28;20184;-73
2024/01/01 07:07:54;;;;;;;5.67;1.50;;;5.80;78.90;;;;;;4939818;28;20200;-71
2024/01/01 07:10:20;;;;;;;4.50;1.60;;;5.80;78.70;;;;;;4926276;28;20551;-71
2024/01/01 07:12:45;;;;;;;3.10;1.40;;;5.80;78.70;;;;;;4958299;28;20496;-71
2024/01/01 07:15:11;;;;;;;5.30;1.70;;;5.80;78.70;;;;;;4941071;28;20185;-75
2024/01/01 07:17:37;;;;;;;3.70;1.50;;;5.80;78.70;;;;;;4930408;28;20196;-75
2024/01/01 07:20:04;;;;;;;3.03;1.70;;;5.80;78.70;;;;;;4924784;28;20527;-72
2024/01/01 07:22:30;;;;;;;7.30;2.10;;;5.80;78.60;;;;;;4930696;28;20241;-72
2024/01/01 07:24:56;;;;;;;3.43;1.50;;;5.80;78.40;;;;;;4926933;28;20467;-72
2024/01/01 07:27:21;;;;;;;4.60;1.30;;;5.80;78.70;;;;;;4935689;28;20289;-73
2024/01/01 07:29:47;;;;;;;4.20;1.20;;;5.70;78.90;;;;;;4923793;28;20255;-73
2024/01/01 07:32:13;;;;;;;3.20;1.40;;;5.70;78.90;;;;;;4936617;28;20227;-71
2024/01/01 07:34:39;;;;;;;5.30;1.70;;;5.70;78.90;;;;;;4929988;28;20579;-72
2024/01/01 07:37:04;;;;;;;4.70;1.47;;;5.70;78.90;;;;;;4929873;28;20437;-72
2024/01/01 07:39:31;;;;;;;3.43;1.57;;;5.70;78.70;;;;;;4932460;28;20188;-74
2024/01/01 07:41:57;;;;;;;7.90;1.80;;;5.70;78.70;;;;;;4926558;28;20206;-72
2024/01/01 07:44:22;;;;;;;4.80;1.60;;;5.70;78.90;;;;;;4939037;28;20424;-72
2024/01/01 07:46:48;;;;;;;3.60;1.93;;;5.80;78.70;;;;;;4955726;28;20925;-72
2024/01/01 07:49:15;;;;;;;5.40;1.90;;;5.80;78.30;;;;;;4935360;28;20189;-71
2024/01/01 07:51:40;;;;;;;5.17;1.70;;;5.70;78.60;;;;;;4929836;28;20472;-73
2024/01/01 07:54:06;;;;;;;4.93;1.53;;;5.80;78.40;;;;;;4933186;28;20514;-71
2024/01/01 07:56:32;;;;;;;2.90;1.53;;;5.80;78.40;;;;;;4952224;28;20196;-71
2024/01/01 07:58:57;;;;;;;5.97;1.87;;;5.80;78.30;;;;;;4930008;28;20192;-72
2024/01/01 08:01:24;;;;;;;6.07;2.20;;;5.80;78.30;;;;;;4929110;28;20212;-73
2024/01/01 08:03:49;;;;;;;5.77;2.43;;;5.80;78.30;;;;;;4933234;28;20221;-71
2024/01/01 08:06:17;;;;;;;3.57;1.30;;;5.80;78.30;;;;;;4935088;28;20413;-75
2024/01/01 08:08:43;;;;;;;7.40;1.67;;;5.80;78.40;;;;;;4969393;28;20193;-74
2024/01/01 08:11:08;;;;;;;6.53;2.00;;;5.80;78.60;;;;;;4961883;28;20460;-74
2024/01/01 08:13:36;;;;;;;5.60;1.70;;;5.80;78.70;;;;;;4974940;28;20279;-73
2024/01/01 08:16:02;;;;;;;6.00;1.63;;;5.90;78.60;;;;;;4930940;28;20677;-76
2024/01/01 08:18:27;;;;;;;3.93;1.47;;;5.90;78.60;;;;;;4934763;28;20433;-74
2024/01/01 08:20:53;;;;;;;3.97;1.53;;;5.90;78.70;;;;;;4927379;28;20209;-74
2024/01/01 08:23:19;;;;;;;2.60;1.40;;;6.00;78.90;;;;;;4932086;28;20216;-74
2024/01/01 08:25:44;;;;;;;9.30;1.97;;;6.00;79.00;;;;;;4930321;28;20459;-74
2024/01/01 08:28:10;;;;;;;6.23;1.40;;;6.10;78.90;;;;;;4947194;28;20189;-73
2024/01/01 08:30:37;;;;;;;3.27;1.60;;;6.10;78.70;;;;;;4925804;28;20291;-75
2024/01/01 08:33:03;;;;;;;5.30;1.37;;;6.20;78.60;;;;;;4927944;29;20672;-72
2024/01/01 08:35:28;;;;;;;2.10;1.30;;;6.10;78.70;;;;;;4929420;28;20486;-76
2024/01/01 08:37:54;;;;;;;6.30;1.93;;;6.10;78.90;;;;;;4940863;28;20180;-75
2024/01/01 08:40:19;;;;;;;4.93;1.90;;;6.20;79.20;;;;;;4945813;28;20205;-77
2024/01/01 08:42:47;;;;;;;5.23;1.73;;;6.20;79.00;;;;;;4934949;28;20217;-75
2024/01/01 08:45:12;;;;;;;7.80;1.57;;;6.20;79.00;;;;;;4936194;28;20192;-74
2024/01/01 08:47:40;;;;;;;5.73;1.70;;;6.20;79.20;;;;;;4935057;28;20412;-75
2024/01/01 08:50:06;;;;;;;6.40;1.73;;;6.30;79.00;;;;;;4930262;28;20209;-73
2024/01/01 08:52:32;;;;;;;2.13;1.17;;;6.40;78.70;;;;;;4931958;29;20516;-75
2024/01/01 08:54:57;;;;;;;8.33;1.33;;;6.40;78.60;;;;;;4932853;28;20517;-73
2024/01/01 08:57:23;;;;;;;2.80;1.30;;;6.50;78.40;;;;;;4933156;28;20189;-73
2024/01/01 08:59:48;;;;;;;3.10;1.50;;;6.50;78.40;;;;;;4926854;28;20669;-74
2024/01/01 09:02:15;;;;;;;2.80;1.60;;;6.50;78.10;;;;;;4924579;28;20191;-74
2024/01/01 09:04:41;;;;;;;9.63;1.70;;;6.50;78.00;;;;;;4933150;28;20641;-74
2024/01/01 09:07:06;;;;;;;3.47;1.20;;;6.60;77.80;;;;;;4932161;28;20425;-73
2024/01/01 09:09:32;;;;;;;2.60;1.43;;;6.60;78.00;;;;;;4929658;28;20192;-78
2024/01/01 09:11:57;;;;;;;5.73;1.37;;;6.80;77.80;;;;;;4923603;28;20231;-74
2024/01/01 09:14:23;;;;;;;4.20;1.67;;;6.80;77.30;;;;;;4940962;28;20189;-74
2024/01/01 09:16:50;;;;;;;6.07;1.23;;;6.90;77.00;;;;;;4929557;28;20185;-75
2024/01/01 09:19:16;;;;;;;9.67;1.90;;;7.10;76.10;;;;;;4928361;28;20193;-77
2024/01/01 09:21:41;;;;;;;6.53;1.83;;;7.10;75.40;;;;;;4928820;29;20471;-74
2024/01/01 09:24:09;;;;;;;5.80;1.37;;;7.10;75.40;;;;;;4936288;28;20267;-76
2024/01/01 09:26:40;;;;;;;6.03;1.73;;;7.10;75.40;;;;;;4933105;28;20212;-73
2024/01/01 09:29:06;;;;;;;4.87;1.50;;;7.20;74.90;;;;;;4945495;28;20994;-75
2024/01/01 09:31:32;;;;;;;6.97;1.40;;;7.30;74.50;;;;;;4927193;28;20476;-74
2024/01/01 09:34:00;;;;;;;4.43;1.37;;;7.30;74.50;;;;;;4951118;28;20199;-77
2024/01/01 09:36:29;;;;;;;5.07;1.40;;;7.40;74.20;;;;;;4979160;28;20473;-76
2024/01/01 09:38:55;;;;;;;4.53;1.10;;;7.50;74.30;;;;;;4930881;28;20976;-74
2024/01/01 09:41:27;;;;;;;5.80;1.57;;;7.50;73.60;;;;;;4928309;28;20503;-74
2024/01/01 09:43:53;;;;;;;5.20;1.20;;;7.70;73.00;;;;;;4931114;28;20472;-73
2024/01/01 09:46:20;;;;;;;3.00;1.40;;;7.80;72.40;;;;;;4931653;28;20429;-75
2024/01/01 09:48:46;;;;;;;4.13;1.30;;;7.80;72.30;;;;;;4930975;28;20425;-73
2024/01/01 09:51:11;;;;;;;4.00;1.30;;;7.80;72.00;;;;;;4935559;28;20463;-74
2024/01/01 09:53:37;;;;;;;12.23;1.57;;;7.90;71.70;;;;;;4929627;28;20207;-76
2024/01/01 09:56:03;;;;;;;3.90;1.00;;;7.90;71.70;;;;;;4930494;28;20180;-73
2024/01/01 09:58:41;;;;;;;3.20;1.33;;;7.90;71.80;;;;;;4929328;28;20436;-74
2024/01/01 10:01:12;;;;;;;5.90;1.50;;;8.00;71.40;;;;;;4922976;28;20465;-75
2024/01/01 10:03:39;;;;;;;3.23;1.13;;;8.00;70.70;;;;;;4928152;28;20479;-75
2024/01/01 10:06:12;;;;;;;4.50;1.53;;;8.00;71.00;;;;;;4932392;28;20424;-76
2024/01/01 10:08:38;;;;;;;6.43;1.30;;;7.90;71.00;;;;;;4951045;28;20424;-73
2024/01/01 10:11:20;;;;;;;3.00;1.10;;;7.90;70.80;;;;;;4933760;28;20491;-73
2024/01/01 10:13:47;;;;;;;7.67;1.20;;;7.90;71.00;;;;;;4905179;28;20432;-73
2024/01/01 10:16:25;;;;;;;5.80;1.37;;;7.90;70.80;;;;;;4925669;28;20515;-73
2024/01/01 10:18:56;;;;;;;5.10;1.10;;;7.90;70.50;;;;;;4929064;28;20559;-75
2024/01/01 10:21:30;;;;;;;3.00;0.93;;;8.00;70.50;;;;;;4916123;28;20469;-78
2024/01/01 10:23:57;;;;;;;4.33;1.27;;;8.00;70.50;;;;;;4930390;28;20490;-72
2024/01/01 10:26:23;;;;;;;4.00;1.20;;;8.10;70.50;;;;;;4929583;28;20437;-73
2024/01/01 10:28:49;;;;;;;3.90;1.33;;;8.10;70.10;;;;;;4930622;28;20454;-72
2024/01/01 10:31:15;;;;;;;4.83;1.10;;;8.00;69.90;;;;;;4925694;28;20499;-75
2024/01/01 10:33:42;;;;;;;5.60;1.33;;;8.00;69.70;;;;;;4930890;28;20511;-73
2024/01/01 10:36:08;;;;;;;3.47;1.00;;;8.00;69.90;;;;;;4932006;28;20619;-74
2024/01/01 10:38:36;;;;;;;2.87;1.10;;;8.10;69.70;;;;;;4928866;28;20512;-74
2024/01/01 10:41:04;;;;;;;1.90;0.73;;;8.10;69.50;;;;;;4927278;28;20555;-73
2024/01/01 10:43:29;;;;;;;3.93;1.60;;;8.10;69.20;;;;;;4928470;28;20487;-73
2024/01/01 10:46:03;;;;;;;4.60;1.30;;;8.10;69.10;;;;;;4930250;28;20452;-74
2024/01/01 10:48:35;;;;;;;6.00;1.60;;;8.20;69.20;;;;;;4929050;28;20258;-74
2024/01/01 10:51:06;;;;;;;0.97;0.70;;;8.30;69.20;;;;;;4925647;28;20563;-75
2024/01/01 10:53:52;;;;;;;6.03;1.43;;;8.40;68.60;;;;;;4927577;28;21000;-71
2024/01/01 10:56:34;;;;;;;4.60;1.30;;;8.20;68.60;;;;;;4927100;28;20439;-73
2024/01/01 10:59:21;;;;;;;4.93;1.20;;;8.30;68.60;;;;;;4924377;28;20431;-80
2024/01/01 11:01:52;;;;;;;8.33;1.47;;;8.40;68.50;;;;;;4924936;29;20602;-71
2024/01/01 11:04:21;;;;;;;6.80;1.93;;;8.50;68.30;;;;;;4925014;28;20484;-71
2024/01/01 11:06:47;;;;;;;3.37;1.47;;;8.50;68.20;;;;;;4932626;28;20777;-71
2024/01/01 11:09:19;;;;;;;10.33;1.57;;;8.50;68.20;;;;;;4924256;28;20439;-71
2024/01/01 11:11:51;;;;;;;6.70;1.57;;;8.50;68.20;;;;;;4923148;29;20211;-72
2024/01/01 11:14:31;;;;;;;9.97;1.97;;;8.60;68.00;;;;;;4926438;28;20433;-71
2024/01/01 11:17:10;;;;;;;5.27;1.60;;;8.60;67.60;;;;;;4932317;28;20441;-73
2024/01/01 11:19:48;;;;;;;3.40;1.30;;;8.70;67.70;;;;;;4928516;28;20567;-73
2024/01/01 11:22:20;;;;;;;5.87;2.00;;;8.80;67.70;;;;;;4921641;29;20842;-72
2024/01/01 11:24:47;;;;;;;3.90;1.70;;;8.90;67.00;;;;;;4925847;28;20858;-71
2024/01/01 11:27:28;;;;;;;4.73;1.57;;;8.70;66.70;;;;;;4929118;28;20437;-72
2024/01/01 11:30:02;;;;;;;8.50;1.70;;;8.70;66.70;;;;;;4929067;28;20457;-73
2024/01/01 11:32:28;;;;;;;5.87;2.30;;;8.90;67.30;;;;;;4931692;28;20966;-74
2024/01/01 11:35:08;;;;;;;4.63;1.70;;;8.90;67.20;;;;;;4935679;28;20505;-72
2024/01/01 11:37:39;;;;;;;4.70;1.93;;;9.10;66.90;;;;;;4930037;28;20392;-72
2024/01/01 11:40:06;;;;;;;5.63;1.47;;;9.10;66.60;;;;;;4926919;28;20468;-72
2024/01/01 11:42:33;;;;;;;5.77;1.60;;;9.10;66.60;;;;;;4930194;29;20472;-73
2024/01/01 11:45:05;;;;;;;5.43;1.70;;;9.10;66.60;;;;;;4931796;28;20523;-72
2024/01/01 11:47:31;;;;;;;6.03;1.27;;;9.00;66.60;;;;;;4932228;28;21042;-72
2024/01/01 11:49:57;;;;;;;11.23;1.80;;;8.80;66.90;;;;;;4931500;28;20464;-72
2024/01/01 11:52:23;;;;;;;7.20;1.90;;;8.80;67.60;;;;;;4929873;29;20459;-74
2024/01/01 11:54:48;;;;;;;7.93;1.60;;;8.90;66.90;;;;;;4928960;28;20189;-72
2024/01/01 11:57:14;;;;;;;14.47;2.27;;;8.90;66.70;;;;;;4930672;28;20185;-72
2024/01/01 11:59:40;;;;;;;4.80;1.53;;;8.90;66.90;;;;;;4932142;28;20243;-73
2024/01/01 12:02:06;;;;;;;10.67;2.10;;;8.90;66.90;;;;;;4927992;29;20258;-72
2024/01/01 12:04:32;;;;;;;6.53;1.80;;;8.90;66.70;;;;;;4933190;28;20200;-72
2024/01/01 12:06:57;;;;;;;4.27;1.53;;;9.00;66.60;;;;;;4942415;28;20436;-74
2024/01/01 12:09:23;;;;;;;11.77;1.67;;;9.10;66.60;;;;;;4928503;28;20436;-74
2024/01/01 12:11:49;;;;;;;2.10;1.50;;;9.10;66.30;;;;;;4933391;29;20243;-72
2024/01/01 12:14:22;;;;;;;6.87;1.97;;;9.20;66.30;;;;;;4925841;28;20461;-73
2024/01/01 12:16:48;;;;;;;8.80;2.20;;;9.10;66.10;;;;;;4923499;28;20188;-73
2024/01/01 12:19:14;;;;;;;6.00;1.80;;;9.10;66.40;;;;;;4927964;28;20417;-73
2024/01/01 12:21:44;;;;;;;8.27;1.80;;;9.20;66.40;;;;;;4922230;28;20292;-72
2024/01/01 12:24:14;;;;;;;5.20;1.57;;;9.30;66.30;;;;;;4930040;28;20217;-72
2024/01/01 12:26:40;;;;;;;8.43;1.90;;;9.20;67.00;;;;;;4930425;28;20445;-72
2024/01/01 12:29:24;;;;;;;5.80;1.63;;;9.10;67.60;;;;;;4925758;28;20809;-73
2024/01/01 12:31:50;;;;;;;5.30;1.17;;;8.90;67.60;;;;;;4919528;29;20499;-73
2024/01/01 12:34:17;;;;;;;8.17;2.03;;;8.90;68.00;;;;;;4925932;28;20503;-72
2024/01/01 12:36:45;;;;;;;4.03;1.80;;;8.80;68.20;;;;;;4924845;28;20193;-73
2024/01/01 12:39:12;;;;;;;4.67;1.23;;;8.80;68.60;;;;;;4928535;28;20495;-72
2024/01/01 12:41:38;;;;;;;8.17;1.60;;;8.80;68.50;;;;;;4919195;28;20468;-74
2024/01/01 12:44:04;;;;;;;10.53;1.70;;;8.90;68.60;;;;;;4928971;28;20562;-73
2024/01/01 12:46:30;;;;;;;4.70;1.20;;;9.00;69.20;;;;;;4925764;28;20918;-74
2024/01/01 12:48:56;;;;;;;4.80;1.43;;;9.00;68.30;;;;;;4922713;28;20421;-72